sensor_id;sensor_type;location;lat;lon;timestamp;temperature;humidity
51733;DHT22;39139;53.144;6.244;2022-08-25T00:01:26;19.40;99.90
51733;DHT22;39139;53.144;6.244;2022-08-25T00:03:52;19.30;99.90
51733;DHT22;39139;53.144;6.244;2022-08-25T00:06:17;19.30;99.90
51733;DHT22;39139;53.144;6.244;2022-08-25T00:08:43;19.30;99.90
51733;DHT22;39139;53.144;6.244;2022-08-25T00:11:18;19.30;99.90
51733;DHT22;39139;53.144;6.244;2022-08-25T00:13:47;19.20;99.90
51733;DHT22;39139;53.144;6.244;2022-08-25T00:16:15;19.20;99.90
51733;DHT22;39139;53.144;6.244;2022-08-25T00:18:43;19.20;99.90
51733;DHT22;39139;53.144;6.244;2022-08-25T00:21:11;19.20;99.90
51733;DHT22;39139;53.144;6.244;2022-08-25T00:23:37;19.20;99.90
51733;DHT22;39139;53.144;6.244;2022-08-25T00:26:03;19.10;99.90
51733;DHT22;39139;53.144;6.244;2022-08-25T00:28:29;19.20;99.90
51733;DHT22;39139;53.144;6.244;2022-08-25T00:30:56;19.20;99.90
51733;DHT22;39139;53.144;6.244;2022-08-25T00:33:23;19.10;99.90
51733;DHT22;39139;53.144;6.244;2022-08-25T00:35:49;19.20;99.90
51733;DHT22;39139;53.144;6.244;2022-08-25T00:38:14;19.20;99.90
51733;DHT22;39139;53.144;6.244;2022-08-25T00:40:41;19.50;99.90
51733;DHT22;39139;53.144;6.244;2022-08-25T00:43:08;19.20;99.90
51733;DHT22;39139;53.144;6.244;2022-08-25T00:45:35;19.20;99.90
51733;DHT22;39139;53.144;6.244;2022-08-25T00:48:01;19.20;99.90
51733;DHT22;39139;53.144;6.244;2022-08-25T00:50:30;19.20;99.90
51733;DHT22;39139;53.144;6.244;2022-08-25T00:52:59;19.20;99.90
51733;DHT22;39139;53.144;6.244;2022-08-25T00:55:39;19.20;99.90
51733;DHT22;39139;53.144;6.244;2022-08-25T00:58:10;19.20;99.90
51733;DHT22;39139;53.144;6.244;2022-08-25T01:00:42;19.20;99.90
51733;DHT22;39139;53.144;6.244;2022-08-25T01:03:09;19.20;99.90
51733;DHT22;39139;53.144;6.244;2022-08-25T01:05:36;19.20;99.90
51733;DHT22;39139;53.144;6.244;2022-08-25T01:08:03;19.10;99.90
51733;DHT22;39139;53.144;6.244;2022-08-25T01:10:32;19.20;99.90
51733;DHT22;39139;53.144;6.244;2022-08-25T01:13:15;19.10;99.90
51733;DHT22;39139;53.144;6.244;2022-08-25T01:15:47;19.20;99.90
51733;DHT22;39139;53.144;6.244;2022-08-25T01:18:14;19.10;99.90
51733;DHT22;39139;53.144;6.244;2022-08-25T01:20:40;19.20;99.90
51733;DHT22;39139;53.144;6.244;2022-08-25T01:23:06;19.20;99.90
51733;DHT22;39139;53.144;6.244;2022-08-25T01:25:49;19.10;99.90
51733;DHT22;39139;53.144;6.244;2022-08-25T01:28:16;19.10;99.90
51733;DHT22;39139;53.144;6.244;2022-08-25T01:30:42;19.10;99.90
51733;DHT22;39139;53.144;6.244;2022-08-25T01:33:09;19.10;99.90
51733;DHT22;39139;53.144;6.244;2022-08-25T01:35:36;19.10;99.90
51733;DHT22;39139;53.144;6.244;2022-08-25T01:38:04;19.10;99.90
51733;DHT22;39139;53.144;6.244;2022-08-25T01:40:30;19.10;99.90
51733;DHT22;39139;53.144;6.244;2022-08-25T01:43:15;19.10;99.90
51733;DHT22;39139;53.144;6.244;2022-08-25T01:45:45;19.20;99.90
51733;DHT22;39139;53.144;6.244;2022-08-25T01:48:13;19.10;99.90
51733;DHT22;39139;53.144;6.244;2022-08-25T01:50:41;19.20;99.90
51733;DHT22;39139;53.144;6.244;2022-08-25T01:53:22;19.20;99.90
51733;DHT22;39139;53.144;6.244;2022-08-25T01:55:48;19.20;99.90
51733;DHT22;39139;53.144;6.244;2022-08-25T01:58:23;19.40;99.90
51733;DHT22;39139;53.144;6.244;2022-08-25T02:00:51;19.20;99.90
51733;DHT22;39139;53.144;6.244;2022-08-25T02:03:19;19.20;99.90
51733;DHT22;39139;53.144;6.244;2022-08-25T02:05:45;19.20;99.90
51733;DHT22;39139;53.144;6.244;2022-08-25T02:08:11;19.80;99.90
51733;DHT22;39139;53.144;6.244;2022-08-25T02:10:37;19.20;99.90
51733;DHT22;39139;53.144;6.244;2022-08-25T02:13:04;19.40;99.90
51733;DHT22;39139;53.144;6.244;2022-08-25T02:15:30;19.20;99.90
51733;DHT22;39139;53.144;6.244;2022-08-25T02:17:56;19.20;99.90
51733;DHT22;39139;53.144;6.244;2022-08-25T02:20:23;19.20;99.90
51733;DHT22;39139;53.144;6.244;2022-08-25T02:22:52;19.20;99.90
51733;DHT22;39139;53.144;6.244;2022-08-25T02:25:19;19.20;99.90
51733;DHT22;39139;53.144;6.244;2022-08-25T02:27:45;19.20;99.90
51733;DHT22;39139;53.144;6.244;2022-08-25T02:30:16;19.20;99.90
51733;DHT22;39139;53.144;6.244;2022-08-25T02:32:42;19.20;99.90
51733;DHT22;39139;53.144;6.244;2022-08-25T02:35:08;19.20;99.90
51733;DHT22;39139;53.144;6.244;2022-08-25T02:37:34;19.20;99.90
51733;DHT22;39139;53.144;6.244;2022-08-25T02:40:00;19.30;99.90
51733;DHT22;39139;53.144;6.244;2022-08-25T02:42:26;19.20;99.90
51733;DHT22;39139;53.144;6.244;2022-08-25T02:44:51;19.10;99.90
51733;DHT22;39139;53.144;6.244;2022-08-25T02:47:18;19.20;99.90
51733;DHT22;39139;53.144;6.244;2022-08-25T02:49:43;19.20;99.90
51733;DHT22;39139;53.144;6.244;2022-08-25T02:52:09;19.20;99.90
51733;DHT22;39139;53.144;6.244;2022-08-25T02:54:35;19.20;99.90
51733;DHT22;39139;53.144;6.244;2022-08-25T02:57:01;19.20;99.90
51733;DHT22;39139;53.144;6.244;2022-08-25T02:59:27;19.20;99.90
51733;DHT22;39139;53.144;6.244;2022-08-25T03:01:52;19.20;99.90
51733;DHT22;39139;53.144;6.244;2022-08-25T03:04:18;19.30;99.90
51733;DHT22;39139;53.144;6.244;2022-08-25T03:06:44;19.20;99.90
51733;DHT22;39139;53.144;6.244;2022-08-25T03:09:10;19.20;99.90
51733;DHT22;39139;53.144;6.244;2022-08-25T03:11:36;19.20;99.90
51733;DHT22;39139;53.144;6.244;2022-08-25T03:14:04;19.10;99.90
51733;DHT22;39139;53.144;6.244;2022-08-25T03:16:30;19.10;99.90
51733;DHT22;39139;53.144;6.244;2022-08-25T03:18:56;19.20;99.90
51733;DHT22;39139;53.144;6.244;2022-08-25T03:21:22;19.20;99.90
51733;DHT22;39139;53.144;6.244;2022-08-25T03:23:48;19.10;99.90
51733;DHT22;39139;53.144;6.244;2022-08-25T03:26:13;19.20;99.90
51733;DHT22;39139;53.144;6.244;2022-08-25T03:28:57;19.10;99.90
51733;DHT22;39139;53.144;6.244;2022-08-25T03:31:24;19.10;99.90
51733;DHT22;39139;53.144;6.244;2022-08-25T03:33:52;19.00;99.90
51733;DHT22;39139;53.144;6.244;2022-08-25T03:36:18;19.00;99.90
51733;DHT22;39139;53.144;6.244;2022-08-25T03:38:44;19.00;99.90
51733;DHT22;39139;53.144;6.244;2022-08-25T03:41:11;18.90;99.90
51733;DHT22;39139;53.144;6.244;2022-08-25T03:43:39;19.00;99.90
51733;DHT22;39139;53.144;6.244;2022-08-25T03:46:05;18.90;99.90
51733;DHT22;39139;53.144;6.244;2022-08-25T03:48:31;18.90;99.90
51733;DHT22;39139;53.144;6.244;2022-08-25T03:50:56;18.30;99.90
51733;DHT22;39139;53.144;6.244;2022-08-25T03:53:22;18.90;99.90
51733;DHT22;39139;53.144;6.244;2022-08-25T03:55:48;19.00;99.90
51733;DHT22;39139;53.144;6.244;2022-08-25T03:58:14;18.80;99.90
51733;DHT22;39139;53.144;6.244;2022-08-25T04:00:40;18.80;99.90
51733;DHT22;39139;53.144;6.244;2022-08-25T04:03:06;18.80;99.90
51733;DHT22;39139;53.144;6.244;2022-08-25T04:05:32;18.70;99.90
51733;DHT22;39139;53.144;6.244;2022-08-25T04:07:57;18.80;99.90
51733;DHT22;39139;53.144;6.244;2022-08-25T04:10:23;18.80;99.90
51733;DHT22;39139;53.144;6.244;2022-08-25T04:12:48;18.70;99.90
51733;DHT22;39139;53.144;6.244;2022-08-25T04:15:14;18.70;99.90
51733;DHT22;39139;53.144;6.244;2022-08-25T04:17:40;18.70;99.90
51733;DHT22;39139;53.144;6.244;2022-08-25T04:20:08;18.70;99.90
51733;DHT22;39139;53.144;6.244;2022-08-25T04:22:36;18.70;99.90
51733;DHT22;39139;53.144;6.244;2022-08-25T04:25:03;19.10;99.90
51733;DHT22;39139;53.144;6.244;2022-08-25T04:27:29;18.70;99.90
51733;DHT22;39139;53.144;6.244;2022-08-25T04:29:55;18.60;99.90
51733;DHT22;39139;53.144;6.244;2022-08-25T04:32:21;18.90;99.90
51733;DHT22;39139;53.144;6.244;2022-08-25T04:34:46;18.60;99.90
51733;DHT22;39139;53.144;6.244;2022-08-25T04:37:13;18.60;99.90
51733;DHT22;39139;53.144;6.244;2022-08-25T04:39:39;18.60;99.90
51733;DHT22;39139;53.144;6.244;2022-08-25T04:42:05;18.60;99.90
51733;DHT22;39139;53.144;6.244;2022-08-25T04:44:30;18.50;99.90
51733;DHT22;39139;53.144;6.244;2022-08-25T04:46:57;19.00;99.90
51733;DHT22;39139;53.144;6.244;2022-08-25T04:49:23;19.20;99.90
51733;DHT22;39139;53.144;6.244;2022-08-25T04:51:49;18.50;99.90
51733;DHT22;39139;53.144;6.244;2022-08-25T04:54:15;18.60;99.90
51733;DHT22;39139;53.144;6.244;2022-08-25T04:56:42;18.60;99.90
51733;DHT22;39139;53.144;6.244;2022-08-25T04:59:13;18.50;99.90
51733;DHT22;39139;53.144;6.244;2022-08-25T05:01:39;18.50;99.90
51733;DHT22;39139;53.144;6.244;2022-08-25T05:04:08;18.50;99.90
51733;DHT22;39139;53.144;6.244;2022-08-25T05:06:34;19.00;99.90
51733;DHT22;39139;53.144;6.244;2022-08-25T05:09:00;18.50;99.90
51733;DHT22;39139;53.144;6.244;2022-08-25T05:11:27;18.60;99.90
51733;DHT22;39139;53.144;6.244;2022-08-25T05:13:54;18.60;99.90
51733;DHT22;39139;53.144;6.244;2022-08-25T05:16:22;18.60;99.90
51733;DHT22;39139;53.144;6.244;2022-08-25T05:18:48;18.60;99.90
51733;DHT22;39139;53.144;6.244;2022-08-25T05:21:17;18.60;99.90
51733;DHT22;39139;53.144;6.244;2022-08-25T05:23:43;18.60;99.90
51733;DHT22;39139;53.144;6.244;2022-08-25T05:26:14;18.60;99.90
51733;DHT22;39139;53.144;6.244;2022-08-25T05:28:41;18.60;99.90
51733;DHT22;39139;53.144;6.244;2022-08-25T05:31:09;19.10;99.90
51733;DHT22;39139;53.144;6.244;2022-08-25T05:33:36;18.70;99.90
51733;DHT22;39139;53.144;6.244;2022-08-25T05:36:02;18.70;99.90
51733;DHT22;39139;53.144;6.244;2022-08-25T05:38:28;18.70;99.90
51733;DHT22;39139;53.144;6.244;2022-08-25T05:40:58;18.70;99.90
51733;DHT22;39139;53.144;6.244;2022-08-25T05:43:24;18.80;99.90
51733;DHT22;39139;53.144;6.244;2022-08-25T05:45:53;18.80;99.90
51733;DHT22;39139;53.144;6.244;2022-08-25T05:48:19;18.90;99.90
51733;DHT22;39139;53.144;6.244;2022-08-25T05:50:59;18.90;99.90
51733;DHT22;39139;53.144;6.244;2022-08-25T05:53:27;18.90;99.90
51733;DHT22;39139;53.144;6.244;2022-08-25T05:55:54;19.00;99.90
51733;DHT22;39139;53.144;6.244;2022-08-25T05:58:22;19.20;99.90
51733;DHT22;39139;53.144;6.244;2022-08-25T06:00:48;19.00;99.90
51733;DHT22;39139;53.144;6.244;2022-08-25T06:03:17;19.00;99.90
51733;DHT22;39139;53.144;6.244;2022-08-25T06:05:43;19.10;99.90
51733;DHT22;39139;53.144;6.244;2022-08-25T06:08:08;19.10;99.90
51733;DHT22;39139;53.144;6.244;2022-08-25T06:10:34;19.20;99.90
51733;DHT22;39139;53.144;6.244;2022-08-25T06:13:00;19.30;99.90
51733;DHT22;39139;53.144;6.244;2022-08-25T06:15:27;19.30;99.90
51733;DHT22;39139;53.144;6.244;2022-08-25T06:17:53;19.30;99.90
51733;DHT22;39139;53.144;6.244;2022-08-25T06:20:23;19.50;99.90
51733;DHT22;39139;53.144;6.244;2022-08-25T06:22:50;19.50;99.90
51733;DHT22;39139;53.144;6.244;2022-08-25T06:25:21;19.60;99.90
51733;DHT22;39139;53.144;6.244;2022-08-25T06:27:47;19.60;99.90
51733;DHT22;39139;53.144;6.244;2022-08-25T06:30:15;19.70;99.90
51733;DHT22;39139;53.144;6.244;2022-08-25T06:32:43;19.70;99.90
51733;DHT22;39139;53.144;6.244;2022-08-25T06:35:11;19.80;99.90
51733;DHT22;39139;53.144;6.244;2022-08-25T06:37:38;19.80;99.90
51733;DHT22;39139;53.144;6.244;2022-08-25T06:40:05;19.90;99.90
51733;DHT22;39139;53.144;6.244;2022-08-25T06:42:32;19.90;99.90
51733;DHT22;39139;53.144;6.244;2022-08-25T06:44:57;20.00;99.90
51733;DHT22;39139;53.144;6.244;2022-08-25T06:47:23;20.10;99.90
51733;DHT22;39139;53.144;6.244;2022-08-25T06:49:48;20.10;99.90
51733;DHT22;39139;53.144;6.244;2022-08-25T06:52:14;20.20;99.90
51733;DHT22;39139;53.144;6.244;2022-08-25T06:54:41;20.30;99.90
51733;DHT22;39139;53.144;6.244;2022-08-25T06:57:07;20.30;99.90
51733;DHT22;39139;53.144;6.244;2022-08-25T06:59:35;20.40;99.90
51733;DHT22;39139;53.144;6.244;2022-08-25T07:02:01;20.50;99.90
51733;DHT22;39139;53.144;6.244;2022-08-25T07:04:27;20.60;99.90
51733;DHT22;39139;53.144;6.244;2022-08-25T07:06:53;20.70;99.90
51733;DHT22;39139;53.144;6.244;2022-08-25T07:09:19;20.80;99.90
51733;DHT22;39139;53.144;6.244;2022-08-25T07:11:45;20.80;99.90
51733;DHT22;39139;53.144;6.244;2022-08-25T07:14:13;20.90;99.90
51733;DHT22;39139;53.144;6.244;2022-08-25T07:16:39;21.50;99.90
51733;DHT22;39139;53.144;6.244;2022-08-25T07:19:06;21.60;99.90
51733;DHT22;39139;53.144;6.244;2022-08-25T07:21:34;21.20;99.90
51733;DHT22;39139;53.144;6.244;2022-08-25T07:24:00;21.20;99.90
51733;DHT22;39139;53.144;6.244;2022-08-25T07:26:30;21.40;99.90
51733;DHT22;39139;53.144;6.244;2022-08-25T07:28:57;21.50;99.90
51733;DHT22;39139;53.144;6.244;2022-08-25T07:31:24;21.60;99.90
51733;DHT22;39139;53.144;6.244;2022-08-25T07:33:49;21.70;99.90
51733;DHT22;39139;53.144;6.244;2022-08-25T07:36:34;21.80;99.90
51733;DHT22;39139;53.144;6.244;2022-08-25T07:39:00;22.10;99.90
51733;DHT22;39139;53.144;6.244;2022-08-25T07:41:30;22.10;99.90
51733;DHT22;39139;53.144;6.244;2022-08-25T07:43:57;22.20;99.90
51733;DHT22;39139;53.144;6.244;2022-08-25T07:46:22;22.20;99.90
51733;DHT22;39139;53.144;6.244;2022-08-25T07:48:48;22.40;99.90
51733;DHT22;39139;53.144;6.244;2022-08-25T07:51:14;22.40;99.90
51733;DHT22;39139;53.144;6.244;2022-08-25T07:53:40;22.60;99.90
51733;DHT22;39139;53.144;6.244;2022-08-25T07:56:12;22.70;99.90
51733;DHT22;39139;53.144;6.244;2022-08-25T07:58:39;22.70;99.90
51733;DHT22;39139;53.144;6.244;2022-08-25T08:01:05;22.80;99.90
51733;DHT22;39139;53.144;6.244;2022-08-25T08:03:32;23.00;99.90
51733;DHT22;39139;53.144;6.244;2022-08-25T08:06:00;23.00;99.90
51733;DHT22;39139;53.144;6.244;2022-08-25T08:08:27;23.20;99.90
51733;DHT22;39139;53.144;6.244;2022-08-25T08:10:53;23.30;99.90
51733;DHT22;39139;53.144;6.244;2022-08-25T08:13:18;23.40;99.90
51733;DHT22;39139;53.144;6.244;2022-08-25T08:15:45;23.50;99.90
51733;DHT22;39139;53.144;6.244;2022-08-25T08:18:11;23.60;99.90
51733;DHT22;39139;53.144;6.244;2022-08-25T08:20:36;23.70;99.90
51733;DHT22;39139;53.144;6.244;2022-08-25T08:23:02;23.90;99.90
51733;DHT22;39139;53.144;6.244;2022-08-25T08:25:28;24.00;99.90
51733;DHT22;39139;53.144;6.244;2022-08-25T08:27:54;24.10;99.90
51733;DHT22;39139;53.144;6.244;2022-08-25T08:30:21;24.20;99.90
51733;DHT22;39139;53.144;6.244;2022-08-25T08:32:47;24.30;99.90
51733;DHT22;39139;53.144;6.244;2022-08-25T08:35:15;24.50;99.90
51733;DHT22;39139;53.144;6.244;2022-08-25T08:37:44;24.80;99.90
51733;DHT22;39139;53.144;6.244;2022-08-25T08:40:13;25.10;99.90
51733;DHT22;39139;53.144;6.244;2022-08-25T08:42:54;25.60;99.90
51733;DHT22;39139;53.144;6.244;2022-08-25T08:45:50;26.10;99.90
51733;DHT22;39139;53.144;6.244;2022-08-25T08:53:26;27.50;99.90
51733;DHT22;39139;53.144;6.244;2022-08-25T08:55:57;28.00;99.90
51733;DHT22;39139;53.144;6.244;2022-08-25T08:58:46;28.40;99.90
51733;DHT22;39139;53.144;6.244;2022-08-25T09:01:33;28.90;99.90
51733;DHT22;39139;53.144;6.244;2022-08-25T09:06:47;29.40;99.90
51733;DHT22;39139;53.144;6.244;2022-08-25T09:09:19;29.80;99.90
51733;DHT22;39139;53.144;6.244;2022-08-25T09:12:22;30.10;99.90
51733;DHT22;39139;53.144;6.244;2022-08-25T09:23:26;30.90;99.90
51733;DHT22;39139;53.144;6.244;2022-08-25T09:28:51;31.10;99.90
51733;DHT22;39139;53.144;6.244;2022-08-25T09:31:33;31.20;99.90
51733;DHT22;39139;53.144;6.244;2022-08-25T09:34:02;31.40;99.90
51733;DHT22;39139;53.144;6.244;2022-08-25T09:36:28;31.50;99.90
51733;DHT22;39139;53.144;6.244;2022-08-25T09:38:54;31.40;99.80
51733;DHT22;39139;53.144;6.244;2022-08-25T09:41:42;31.50;99.90
51733;DHT22;39139;53.144;6.244;2022-08-25T09:49:20;31.40;99.20
51733;DHT22;39139;53.144;6.244;2022-08-25T09:51:46;31.50;99.70
51733;DHT22;39139;53.144;6.244;2022-08-25T09:56:49;31.70;99.60
51733;DHT22;39139;53.144;6.244;2022-08-25T09:59:20;31.50;99.40
51733;DHT22;39139;53.144;6.244;2022-08-25T10:01:48;31.30;99.20
51733;DHT22;39139;53.144;6.244;2022-08-25T10:04:14;31.30;99.20
51733;DHT22;39139;53.144;6.244;2022-08-25T10:06:49;31.30;99.90
51733;DHT22;39139;53.144;6.244;2022-08-25T10:09:29;31.40;99.90
51733;DHT22;39139;53.144;6.244;2022-08-25T10:11:55;31.40;99.70
51733;DHT22;39139;53.144;6.244;2022-08-25T10:14:28;31.40;99.60
51733;DHT22;39139;53.144;6.244;2022-08-25T10:22:34;31.30;98.80
51733;DHT22;39139;53.144;6.244;2022-08-25T10:25:00;31.30;98.70
51733;DHT22;39139;53.144;6.244;2022-08-25T10:30:04;31.30;99.20
51733;DHT22;39139;53.144;6.244;2022-08-25T10:40:51;31.50;98.50
51733;DHT22;39139;53.144;6.244;2022-08-25T10:43:23;31.40;99.10
51733;DHT22;39139;53.144;6.244;2022-08-25T10:46:12;31.60;99.10
51733;DHT22;39139;53.144;6.244;2022-08-25T10:51:45;31.60;98.60
51733;DHT22;39139;53.144;6.244;2022-08-25T10:57:04;31.50;98.10
51733;DHT22;39139;53.144;6.244;2022-08-25T10:59:56;31.50;97.20
51733;DHT22;39139;53.144;6.244;2022-08-25T11:05:29;31.10;96.10
51733;DHT22;39139;53.144;6.244;2022-08-25T11:10:48;31.30;97.90
51733;DHT22;39139;53.144;6.244;2022-08-25T11:13:40;31.30;97.00
51733;DHT22;39139;53.144;6.244;2022-08-25T11:16:17;31.50;97.00
51733;DHT22;39139;53.144;6.244;2022-08-25T11:18:58;31.50;96.80
51733;DHT22;39139;53.144;6.244;2022-08-25T11:24:31;31.40;96.80
51733;DHT22;39139;53.144;6.244;2022-08-25T11:26:59;31.30;97.80
51733;DHT22;39139;53.144;6.244;2022-08-25T11:29:30;31.30;96.40
51733;DHT22;39139;53.144;6.244;2022-08-25T11:31:58;31.30;96.50
51733;DHT22;39139;53.144;6.244;2022-08-25T11:34:30;31.40;97.50
51733;DHT22;39139;53.144;6.244;2022-08-25T11:37:06;31.40;96.70
51733;DHT22;39139;53.144;6.244;2022-08-25T11:40:57;31.30;96.60
51733;DHT22;39139;53.144;6.244;2022-08-25T11:42:59;31.30;96.70
51733;DHT22;39139;53.144;6.244;2022-08-25T11:45:47;31.30;97.10
51733;DHT22;39139;53.144;6.244;2022-08-25T11:51:05;31.30;96.50
51733;DHT22;39139;53.144;6.244;2022-08-25T11:53:39;31.30;95.70
51733;DHT22;39139;53.144;6.244;2022-08-25T11:56:12;31.10;95.90
51733;DHT22;39139;53.144;6.244;2022-08-25T11:58:53;31.30;96.10
51733;DHT22;39139;53.144;6.244;2022-08-25T12:09:33;31.40;95.10
51733;DHT22;39139;53.144;6.244;2022-08-25T12:12:54;31.50;95.90
51733;DHT22;39139;53.144;6.244;2022-08-25T12:23:40;31.50;95.60
51733;DHT22;39139;53.144;6.244;2022-08-25T12:34:35;31.60;95.30
51733;DHT22;39139;53.144;6.244;2022-08-25T12:37:10;31.50;94.90
51733;DHT22;39139;53.144;6.244;2022-08-25T12:39:44;31.60;94.70
51733;DHT22;39139;53.144;6.244;2022-08-25T12:47:40;31.70;94.90
51733;DHT22;39139;53.144;6.244;2022-08-25T12:50:27;31.80;95.00
51733;DHT22;39139;53.144;6.244;2022-08-25T12:52:55;31.70;93.10
51733;DHT22;39139;53.144;6.244;2022-08-25T12:55:25;31.70;94.40
51733;DHT22;39139;53.144;6.244;2022-08-25T12:57:53;31.80;94.10
51733;DHT22;39139;53.144;6.244;2022-08-25T13:00:36;31.80;93.50
51733;DHT22;39139;53.144;6.244;2022-08-25T13:07:02;32.00;94.10
51733;DHT22;39139;53.144;6.244;2022-08-25T13:16:55;32.10;94.00
51733;DHT22;39139;53.144;6.244;2022-08-25T13:19:21;32.30;93.80
51733;DHT22;39139;53.144;6.244;2022-08-25T13:21:47;32.30;93.60
51733;DHT22;39139;53.144;6.244;2022-08-25T13:24:23;32.30;93.50
51733;DHT22;39139;53.144;6.244;2022-08-25T13:26:59;32.40;93.70
51733;DHT22;39139;53.144;6.244;2022-08-25T13:29:29;32.30;92.50
51733;DHT22;39139;53.144;6.244;2022-08-25T13:31:59;32.30;93.00
51733;DHT22;39139;53.144;6.244;2022-08-25T13:34:36;32.50;93.70
51733;DHT22;39139;53.144;6.244;2022-08-25T13:37:29;32.50;93.10
51733;DHT22;39139;53.144;6.244;2022-08-25T13:40:12;32.60;92.80
51733;DHT22;39139;53.144;6.244;2022-08-25T13:42:42;32.70;92.40
51733;DHT22;39139;53.144;6.244;2022-08-25T13:45:13;32.80;93.00
51733;DHT22;39139;53.144;6.244;2022-08-25T13:47:43;32.70;93.00
51733;DHT22;39139;53.144;6.244;2022-08-25T13:55:23;32.80;92.90
51733;DHT22;39139;53.144;6.244;2022-08-25T13:57:50;32.90;92.50
51733;DHT22;39139;53.144;6.244;2022-08-25T14:00:29;32.90;93.40
51733;DHT22;39139;53.144;6.244;2022-08-25T14:02:56;33.00;92.60
51733;DHT22;39139;53.144;6.244;2022-08-25T14:05:36;33.00;93.30
51733;DHT22;39139;53.144;6.244;2022-08-25T14:08:03;33.10;93.50
51733;DHT22;39139;53.144;6.244;2022-08-25T14:10:41;33.00;92.80
51733;DHT22;39139;53.144;6.244;2022-08-25T14:13:37;32.90;91.90
51733;DHT22;39139;53.144;6.244;2022-08-25T14:16:18;32.90;92.80
51733;DHT22;39139;53.144;6.244;2022-08-25T14:18:49;32.90;92.30
51733;DHT22;39139;53.144;6.244;2022-08-25T14:21:17;32.80;92.10
51733;DHT22;39139;53.144;6.244;2022-08-25T14:23:43;32.30;92.10
51733;DHT22;39139;53.144;6.244;2022-08-25T14:26:09;32.50;92.00
51733;DHT22;39139;53.144;6.244;2022-08-25T14:28:35;32.50;92.40
51733;DHT22;39139;53.144;6.244;2022-08-25T14:31:01;32.50;92.70
51733;DHT22;39139;53.144;6.244;2022-08-25T14:33:33;32.50;92.90
51733;DHT22;39139;53.144;6.244;2022-08-25T14:36:00;32.40;92.30
51733;DHT22;39139;53.144;6.244;2022-08-25T14:38:29;32.30;92.80
51733;DHT22;39139;53.144;6.244;2022-08-25T14:40:55;32.20;93.10
51733;DHT22;39139;53.144;6.244;2022-08-25T14:43:20;32.00;92.40
51733;DHT22;39139;53.144;6.244;2022-08-25T14:45:46;32.00;93.00
51733;DHT22;39139;53.144;6.244;2022-08-25T14:48:22;31.90;93.10
51733;DHT22;39139;53.144;6.244;2022-08-25T14:50:48;31.80;93.20
51733;DHT22;39139;53.144;6.244;2022-08-25T14:53:14;31.90;93.30
51733;DHT22;39139;53.144;6.244;2022-08-25T14:55:40;31.60;93.20
51733;DHT22;39139;53.144;6.244;2022-08-25T14:58:06;31.60;93.50
51733;DHT22;39139;53.144;6.244;2022-08-25T15:00:34;31.50;93.60
51733;DHT22;39139;53.144;6.244;2022-08-25T15:03:01;31.40;93.40
51733;DHT22;39139;53.144;6.244;2022-08-25T15:05:27;31.30;93.60
51733;DHT22;39139;53.144;6.244;2022-08-25T15:07:54;31.20;93.50
51733;DHT22;39139;53.144;6.244;2022-08-25T15:10:39;31.20;93.60
51733;DHT22;39139;53.144;6.244;2022-08-25T15:13:05;31.10;93.80
51733;DHT22;39139;53.144;6.244;2022-08-25T15:15:32;31.10;93.70
51733;DHT22;39139;53.144;6.244;2022-08-25T15:17:58;31.10;93.30
51733;DHT22;39139;53.144;6.244;2022-08-25T15:20:24;31.00;92.90
51733;DHT22;39139;53.144;6.244;2022-08-25T15:22:49;31.00;92.50
51733;DHT22;39139;53.144;6.244;2022-08-25T15:25:15;30.90;92.90
51733;DHT22;39139;53.144;6.244;2022-08-25T15:27:41;30.90;92.80
51733;DHT22;39139;53.144;6.244;2022-08-25T15:30:07;30.80;92.80
51733;DHT22;39139;53.144;6.244;2022-08-25T15:32:33;30.80;91.80
51733;DHT22;39139;53.144;6.244;2022-08-25T15:34:59;30.80;91.70
51733;DHT22;39139;53.144;6.244;2022-08-25T15:37:25;30.70;92.00
51733;DHT22;39139;53.144;6.244;2022-08-25T15:39:51;30.70;92.60
51733;DHT22;39139;53.144;6.244;2022-08-25T15:42:17;30.70;92.70
51733;DHT22;39139;53.144;6.244;2022-08-25T15:44:43;30.60;92.60
51733;DHT22;39139;53.144;6.244;2022-08-25T15:47:09;30.60;92.80
51733;DHT22;39139;53.144;6.244;2022-08-25T15:49:35;30.50;92.60
51733;DHT22;39139;53.144;6.244;2022-08-25T15:52:00;30.50;92.10
51733;DHT22;39139;53.144;6.244;2022-08-25T15:54:27;30.40;92.70
51733;DHT22;39139;53.144;6.244;2022-08-25T15:56:54;30.40;91.80
51733;DHT22;39139;53.144;6.244;2022-08-25T15:59:20;30.40;92.20
51733;DHT22;39139;53.144;6.244;2022-08-25T16:01:46;30.30;91.60
51733;DHT22;39139;53.144;6.244;2022-08-25T16:04:12;30.30;91.60
51733;DHT22;39139;53.144;6.244;2022-08-25T16:06:39;30.20;91.50
51733;DHT22;39139;53.144;6.244;2022-08-25T16:09:05;30.20;91.50
51733;DHT22;39139;53.144;6.244;2022-08-25T16:11:32;30.10;92.00
51733;DHT22;39139;53.144;6.244;2022-08-25T16:13:59;30.10;92.10
51733;DHT22;39139;53.144;6.244;2022-08-25T16:16:26;30.10;92.30
51733;DHT22;39139;53.144;6.244;2022-08-25T16:18:53;30.10;92.40
51733;DHT22;39139;53.144;6.244;2022-08-25T16:21:28;30.10;92.30
51733;DHT22;39139;53.144;6.244;2022-08-25T16:23:57;30.10;92.60
51733;DHT22;39139;53.144;6.244;2022-08-25T16:26:25;30.00;92.50
51733;DHT22;39139;53.144;6.244;2022-08-25T16:28:51;30.10;93.10
51733;DHT22;39139;53.144;6.244;2022-08-25T16:31:17;29.90;93.20
51733;DHT22;39139;53.144;6.244;2022-08-25T16:33:43;29.80;92.90
51733;DHT22;39139;53.144;6.244;2022-08-25T16:36:12;29.80;93.20
51733;DHT22;39139;53.144;6.244;2022-08-25T16:38:39;29.70;92.90
51733;DHT22;39139;53.144;6.244;2022-08-25T16:41:09;29.70;92.90
51733;DHT22;39139;53.144;6.244;2022-08-25T16:43:35;29.70;93.10
51733;DHT22;39139;53.144;6.244;2022-08-25T16:46:04;29.70;93.20
51733;DHT22;39139;53.144;6.244;2022-08-25T16:48:31;29.60;93.10
51733;DHT22;39139;53.144;6.244;2022-08-25T16:50:57;29.70;93.80
51733;DHT22;39139;53.144;6.244;2022-08-25T16:53:23;29.60;93.70
51733;DHT22;39139;53.144;6.244;2022-08-25T16:56:07;29.60;93.60
51733;DHT22;39139;53.144;6.244;2022-08-25T16:58:33;29.60;93.70
51733;DHT22;39139;53.144;6.244;2022-08-25T17:01:17;29.60;93.50
51733;DHT22;39139;53.144;6.244;2022-08-25T17:03:43;29.60;93.90
51733;DHT22;39139;53.144;6.244;2022-08-25T17:06:09;29.50;94.20
51733;DHT22;39139;53.144;6.244;2022-08-25T17:08:35;29.50;94.20
51733;DHT22;39139;53.144;6.244;2022-08-25T17:11:06;29.40;94.20
51733;DHT22;39139;53.144;6.244;2022-08-25T17:13:33;29.30;93.80
51733;DHT22;39139;53.144;6.244;2022-08-25T17:15:59;29.30;94.50
51733;DHT22;39139;53.144;6.244;2022-08-25T17:18:26;29.20;94.80
51733;DHT22;39139;53.144;6.244;2022-08-25T17:21:07;29.10;94.80
51733;DHT22;39139;53.144;6.244;2022-08-25T17:23:34;29.00;95.80
51733;DHT22;39139;53.144;6.244;2022-08-25T17:26:01;29.00;95.90
51733;DHT22;39139;53.144;6.244;2022-08-25T17:28:28;28.80;96.10
51733;DHT22;39139;53.144;6.244;2022-08-25T17:30:54;28.70;96.40